createdAt,value
2018-12-19T00:00:47.526Z,85.98
2018-12-19T00:03:14.924Z,86.07
2018-12-19T00:05:42.330Z,85.09
2018-12-19T00:08:09.722Z,85.15
2018-12-19T00:10:37.110Z,86.05
2018-12-19T00:13:04.504Z,85.27
2018-12-19T00:15:32.063Z,85.96
2018-12-19T00:17:59.437Z,85.46
2018-12-19T00:20:26.875Z,86.64
2018-12-19T00:22:54.838Z,86.19
2018-12-19T00:25:22.286Z,85.76
2018-12-19T00:27:49.684Z,85.20
2018-12-19T00:30:17.079Z,85.14
2018-12-19T00:32:44.462Z,85.87
2018-12-19T00:35:11.923Z,86.41
2018-12-19T00:37:39.302Z,86.27
2018-12-19T00:40:06.734Z,86.98
2018-12-19T00:42:34.189Z,86.30
2018-12-19T00:45:01.587Z,86.05
2018-12-19T00:47:28.970Z,86.50
2018-12-19T00:49:56.374Z,87.07
2018-12-19T00:52:23.857Z,86.89
2018-12-19T00:54:51.271Z,86.23
2018-12-19T00:57:18.666Z,86.32
2018-12-19T00:59:46.058Z,86.06
2018-12-19T01:02:13.543Z,86.69
2018-12-19T01:04:40.990Z,86.06
2018-12-19T01:07:08.447Z,86.77
2018-12-19T01:09:36.020Z,85.68
2018-12-19T01:12:03.394Z,85.34
2018-12-19T01:14:30.786Z,85.01
2018-12-19T01:16:58.274Z,85.80
2018-12-19T01:19:25.730Z,85.49
2018-12-19T01:21:53.123Z,85.58
2018-12-19T01:24:20.994Z,85.41
2018-12-19T01:26:48.418Z,85.72
2018-12-19T01:29:15.879Z,85.21
2018-12-19T01:31:43.259Z,84.70
2018-12-19T01:34:10.679Z,84.12
2018-12-19T01:36:38.071Z,84.05
2018-12-19T01:39:06.363Z,83.85
2018-12-19T01:41:33.865Z,84.38
2018-12-19T01:44:01.322Z,83.88
2018-12-19T01:46:28.714Z,83.92
2018-12-19T01:48:56.142Z,83.29
2018-12-19T01:51:23.546Z,82.90
2018-12-19T01:53:50.946Z,83.99
2018-12-19T01:56:18.405Z,83.03
2018-12-19T01:58:45.778Z,82.95
2018-12-19T02:01:13.216Z,83.05
2018-12-19T02:03:40.673Z,82.74
2018-12-19T02:06:08.062Z,83.12
2018-12-19T02:08:35.438Z,83.06
2018-12-19T02:11:02.837Z,82.99
2018-12-19T02:13:30.299Z,83.46
2018-12-19T02:15:57.750Z,83.80
2018-12-19T02:18:25.206Z,82.78
2018-12-19T02:20:52.661Z,83.55
2018-12-19T02:23:20.129Z,83.75
2018-12-19T02:25:47.502Z,83.58
2018-12-19T02:28:15.037Z,82.98
2018-12-19T02:30:42.490Z,83.17
2018-12-19T02:33:10.063Z,83.57
2018-12-19T02:35:37.418Z,82.71
2018-12-19T02:38:04.872Z,83.04
2018-12-19T02:40:32.254Z,83.55
2018-12-19T02:42:59.681Z,82.68
2018-12-19T02:45:27.133Z,82.74
2018-12-19T02:47:54.587Z,82.33
2018-12-19T02:50:22.050Z,82.88
2018-12-19T02:52:49.503Z,82.38
2018-12-19T02:55:16.958Z,82.90
2018-12-19T02:57:44.422Z,82.06
2018-12-19T03:00:11.866Z,82.90
2018-12-19T03:02:39.267Z,82.56
2018-12-19T03:05:06.786Z,82.25
2018-12-19T03:07:34.175Z,82.67
2018-12-19T03:10:01.740Z,81.86
2018-12-19T03:12:29.258Z,82.62
2018-12-19T03:14:56.716Z,82.92
2018-12-19T03:17:24.170Z,82.88
2018-12-19T03:19:51.627Z,82.40
2018-12-19T03:22:19.095Z,83.37
2018-12-19T03:24:46.542Z,83.00
2018-12-19T03:27:13.932Z,84.06
2018-12-19T03:29:41.318Z,82.96
2018-12-19T03:32:08.717Z,82.95
2018-12-19T03:34:36.098Z,82.54
2018-12-19T03:37:03.494Z,82.38
2018-12-19T03:39:31.005Z,82.76
2018-12-19T03:41:58.529Z,82.29
2018-12-19T03:44:25.943Z,82.38
2018-12-19T03:46:53.418Z,82.49
2018-12-19T03:49:21.202Z,82.08
2018-12-19T03:51:48.683Z,81.67
2018-12-19T03:54:16.481Z,81.70
2018-12-19T03:56:44.078Z,81.02
2018-12-19T03:59:11.538Z,80.90
2018-12-19T04:01:39.122Z,81.22
2018-12-19T04:04:06.493Z,80.09
2018-12-19T04:06:34.026Z,80.78
2018-12-19T04:09:01.422Z,79.86
2018-12-19T04:11:28.802Z,80.34
2018-12-19T04:13:56.299Z,80.40
2018-12-19T04:16:23.754Z,79.99
2018-12-19T04:18:51.158Z,79.31
2018-12-19T04:21:18.566Z,80.43
2018-12-19T04:23:46.018Z,79.12
2018-12-19T04:26:13.474Z,79.12
2018-12-19T04:28:40.939Z,80.04
2018-12-19T04:31:08.721Z,79.94
2018-12-19T04:33:36.155Z,80.13
2018-12-19T04:36:04.147Z,79.83
2018-12-19T04:38:31.830Z,79.92
2018-12-19T04:40:59.456Z,79.89
2018-12-19T04:43:27.018Z,81.03
2018-12-19T04:45:54.398Z,81.24
2018-12-19T04:48:21.814Z,80.36
2018-12-19T04:50:49.194Z,80.49
2018-12-19T04:53:16.639Z,80.41
2018-12-19T04:55:44.049Z,80.05
2018-12-19T04:58:11.467Z,80.89
2018-12-19T05:00:38.901Z,80.79
2018-12-19T05:03:06.369Z,80.05
2018-12-19T05:05:33.822Z,80.08
2018-12-19T05:08:01.215Z,80.60
2018-12-19T05:10:28.631Z,80.67
2018-12-19T05:12:56.082Z,80.12
2018-12-19T05:15:23.643Z,80.74
2018-12-19T05:17:51.102Z,80.02
2018-12-19T05:20:18.563Z,80.49
2018-12-19T05:22:46.118Z,80.26
2018-12-19T05:25:14.593Z,80.25
2018-12-19T05:27:42.063Z,80.68
2018-12-19T05:30:09.922Z,80.56
2018-12-19T05:32:37.298Z,80.43
2018-12-19T05:35:06.199Z,78.82
2018-12-19T05:37:33.658Z,79.50
2018-12-19T05:40:01.074Z,80.52
2018-12-19T05:42:28.535Z,80.68
2018-12-19T05:44:55.923Z,80.79
2018-12-19T05:47:23.556Z,79.91
2018-12-19T05:49:51.219Z,79.70
2018-12-19T05:52:20.314Z,79.58
2018-12-19T05:54:47.911Z,79.67
2018-12-19T05:57:15.491Z,79.87
2018-12-19T05:59:43.722Z,79.57
2018-12-19T06:02:11.166Z,80.07
2018-12-19T06:04:38.618Z,80.02
2018-12-19T06:07:05.998Z,79.04
2018-12-19T06:09:33.386Z,79.21
2018-12-19T06:12:00.762Z,78.86
2018-12-19T06:14:28.221Z,78.83
2018-12-19T06:16:55.611Z,79.33
2018-12-19T06:19:23.042Z,79.18
2018-12-19T06:21:50.542Z,78.49
2018-12-19T06:24:17.972Z,79.59
2018-12-19T06:26:45.418Z,79.01
2018-12-19T06:29:12.796Z,78.59
2018-12-19T06:31:40.231Z,79.24
2018-12-19T06:34:07.698Z,79.43
2018-12-19T06:36:35.095Z,78.79
2018-12-19T06:39:02.483Z,79.41
2018-12-19T06:41:29.950Z,78.55
2018-12-19T06:43:57.414Z,78.56
2018-12-19T06:46:24.879Z,78.54
2018-12-19T06:48:52.379Z,78.97
2018-12-19T06:51:19.878Z,78.61
2018-12-19T06:53:47.334Z,78.40
2018-12-19T06:56:14.907Z,78.83
2018-12-19T06:58:42.350Z,77.74
2018-12-19T07:01:09.745Z,77.61
2018-12-19T07:03:37.162Z,78.96
2018-12-19T07:06:04.626Z,79.59
2018-12-19T07:08:32.074Z,79.79
2018-12-19T07:10:59.539Z,79.25
2018-12-19T07:13:27.215Z,79.96
2018-12-19T07:15:54.597Z,80.40
2018-12-19T07:18:21.990Z,81.62
2018-12-19T07:20:49.386Z,81.55
2018-12-19T07:23:16.770Z,81.51
2018-12-19T07:25:44.154Z,81.67
2018-12-19T07:28:11.535Z,82.15
2018-12-19T07:30:38.986Z,81.40
2018-12-19T07:33:06.444Z,81.89
2018-12-19T07:35:33.827Z,81.53
2018-12-19T07:38:01.254Z,81.72
2018-12-19T07:40:28.654Z,81.32
2018-12-19T07:42:56.039Z,81.66
2018-12-19T07:45:23.527Z,82.18
2018-12-19T07:47:50.958Z,81.38
2018-12-19T07:50:18.455Z,81.86
2018-12-19T07:52:46.162Z,82.28
2018-12-19T07:55:13.538Z,81.79
2018-12-19T07:57:41.014Z,82.43
2018-12-19T08:00:08.410Z,82.53
2018-12-19T08:02:35.794Z,82.85
2018-12-19T08:05:03.178Z,82.77
2018-12-19T08:07:30.570Z,82.99
2018-12-19T08:09:57.990Z,82.77
2018-12-19T08:12:25.403Z,82.99
2018-12-19T08:14:54.757Z,82.86
2018-12-19T08:17:22.146Z,83.40
2018-12-19T08:19:49.558Z,83.58
2018-12-19T08:22:16.955Z,83.64
2018-12-19T08:24:44.418Z,84.31
2018-12-19T08:27:11.822Z,83.91
2018-12-19T08:29:39.199Z,83.75
2018-12-19T08:32:06.666Z,84.34
2018-12-19T08:34:34.058Z,83.45
2018-12-19T08:37:01.440Z,83.89
2018-12-19T08:39:29.134Z,83.90
2018-12-19T08:41:56.814Z,84.95
2018-12-19T08:44:24.506Z,84.55
2018-12-19T08:46:52.047Z,85.40
2018-12-19T08:49:19.450Z,85.66
2018-12-19T08:51:46.906Z,85.52
2018-12-19T08:54:14.362Z,85.33
2018-12-19T08:56:41.813Z,85.30
2018-12-19T08:59:09.275Z,86.09
2018-12-19T09:01:36.670Z,86.14
2018-12-19T09:04:04.065Z,85.74
2018-12-19T09:06:31.541Z,86.78
2018-12-19T09:08:59.014Z,86.53
2018-12-19T09:11:26.563Z,86.36
2018-12-19T09:13:53.964Z,86.19
2018-12-19T09:16:21.366Z,85.33
2018-12-19T09:18:48.826Z,85.15
2018-12-19T09:21:16.286Z,85.77
2018-12-19T09:23:43.674Z,85.77
2018-12-19T09:26:11.057Z,85.37
2018-12-19T09:28:38.514Z,85.55
2018-12-19T09:31:05.902Z,85.53
2018-12-19T09:33:33.362Z,85.48
2018-12-19T09:36:00.834Z,85.22
2018-12-19T09:38:28.229Z,83.71
2018-12-19T09:40:55.615Z,83.08
2018-12-19T09:43:23.026Z,84.15
2018-12-19T09:45:50.442Z,83.58
2018-12-19T09:48:18.230Z,83.18
2018-12-19T09:50:45.630Z,84.32
2018-12-19T09:53:13.422Z,83.90
2018-12-19T09:55:40.967Z,83.91
2018-12-19T09:58:08.354Z,83.64
2018-12-19T10:00:35.808Z,83.29
2018-12-19T10:03:03.254Z,83.06
2018-12-19T10:05:30.758Z,83.95
2018-12-19T10:07:58.170Z,83.94
2018-12-19T10:10:25.566Z,83.28
2018-12-19T10:12:52.974Z,83.73
2018-12-19T10:15:20.366Z,82.81
2018-12-19T10:17:47.791Z,81.91
2018-12-19T10:20:15.250Z,82.42
2018-12-19T10:22:42.706Z,82.71
2018-12-19T10:25:13.685Z,82.84
2018-12-19T10:27:41.175Z,82.72
2018-12-19T10:30:10.815Z,83.32
2018-12-19T10:32:39.484Z,82.86
2018-12-19T10:35:08.485Z,83.00
2018-12-19T10:37:36.055Z,82.77
2018-12-19T10:40:05.341Z,82.02
2018-12-19T10:42:32.738Z,81.48
2018-12-19T10:45:00.158Z,81.14
2018-12-19T10:47:27.555Z,80.94
2018-12-19T10:49:54.979Z,82.38
2018-12-19T10:52:22.435Z,81.33
2018-12-19T10:54:49.890Z,81.80
2018-12-19T10:57:17.341Z,81.36
2018-12-19T10:59:44.806Z,81.99
2018-12-19T11:02:12.202Z,81.02
2018-12-19T11:04:39.603Z,80.73
2018-12-19T11:07:06.990Z,81.83
2018-12-19T11:09:34.382Z,81.04
2018-12-19T11:12:01.894Z,81.38
2018-12-19T11:14:29.402Z,81.48
2018-12-19T11:16:57.021Z,81.37
2018-12-19T11:19:24.459Z,80.73
2018-12-19T11:21:51.856Z,80.99
2018-12-19T11:24:19.249Z,81.32
2018-12-19T11:26:46.750Z,80.98
2018-12-19T11:29:14.136Z,81.59
2018-12-19T11:31:41.553Z,82.03
2018-12-19T11:34:08.965Z,82.06
2018-12-19T11:36:36.574Z,82.17
2018-12-19T11:39:06.752Z,81.60
2018-12-19T11:41:38.955Z,82.08
2018-12-19T11:44:04.141Z,81.13
2018-12-19T11:46:31.606Z,81.30
2018-12-19T11:48:59.067Z,81.47
2018-12-19T11:51:26.464Z,82.14
2018-12-19T11:53:53.853Z,81.25
2018-12-19T11:56:21.321Z,80.25
2018-12-19T11:58:48.715Z,79.84
2018-12-19T12:01:16.143Z,80.66
2018-12-19T12:03:43.518Z,80.53
2018-12-19T12:06:10.910Z,79.75
2018-12-19T12:08:38.290Z,80.12
2018-12-19T12:11:05.762Z,79.40
2018-12-19T12:13:33.225Z,79.92
2018-12-19T12:16:00.651Z,79.74
2018-12-19T12:18:28.135Z,78.81
2018-12-19T12:20:55.582Z,77.23
2018-12-19T12:23:23.048Z,77.15
2018-12-19T12:25:50.443Z,77.71
2018-12-19T12:28:17.869Z,78.03
2018-12-19T12:30:45.314Z,77.10
2018-12-19T12:33:12.719Z,78.01
2018-12-19T12:35:40.315Z,77.55
2018-12-19T12:38:08.208Z,78.76
2018-12-19T12:40:35.586Z,78.91
2018-12-19T12:43:03.010Z,78.75
2018-12-19T12:45:30.403Z,79.43
2018-12-19T12:47:57.824Z,78.06
2018-12-19T12:50:25.273Z,77.92
2018-12-19T12:52:52.843Z,77.88
2018-12-19T12:55:20.242Z,77.93
2018-12-19T12:57:47.718Z,77.39
2018-12-19T13:00:15.102Z,76.90
2018-12-19T13:02:42.567Z,76.35
2018-12-19T13:05:10.124Z,77.22
2018-12-19T13:07:37.582Z,77.72
2018-12-19T13:10:07.465Z,77.40
2018-12-19T13:12:34.855Z,76.66
2018-12-19T13:15:02.516Z,78.04
2018-12-19T13:17:29.902Z,76.55
2018-12-19T13:19:57.310Z,76.71
2018-12-19T13:22:24.707Z,76.75
2018-12-19T13:24:52.126Z,75.96
2018-12-19T13:27:19.606Z,76.73
2018-12-19T13:29:47.042Z,75.52
2018-12-19T13:32:14.438Z,75.34
2018-12-19T13:34:41.837Z,75.97
2018-12-19T13:37:09.315Z,76.75
2018-12-19T13:39:36.719Z,76.73
2018-12-19T13:42:05.812Z,76.95
2018-12-19T13:44:33.528Z,77.14
2018-12-19T13:47:00.988Z,77.78
2018-12-19T13:49:28.387Z,77.82
2018-12-19T13:51:55.797Z,76.20
2018-12-19T13:54:23.260Z,76.38
2018-12-19T13:56:50.647Z,76.36
2018-12-19T13:59:18.070Z,77.12
2018-12-19T14:01:45.481Z,75.90
2018-12-19T14:04:12.887Z,77.32
2018-12-19T14:06:40.286Z,77.95
2018-12-19T14:09:07.684Z,76.82
2018-12-19T14:11:35.170Z,77.43
2018-12-19T14:14:02.597Z,76.81
2018-12-19T14:16:30.059Z,76.81
2018-12-19T14:18:57.519Z,77.38
2018-12-19T14:21:24.905Z,76.78
2018-12-19T14:23:52.345Z,77.06
2018-12-19T14:26:19.790Z,77.49
2018-12-19T14:28:47.249Z,77.39
2018-12-19T14:31:14.647Z,78.08
2018-12-19T14:33:42.031Z,77.94
2018-12-19T14:36:09.427Z,77.23
2018-12-19T14:38:36.823Z,77.55
2018-12-19T14:41:04.328Z,77.48
2018-12-19T14:43:31.710Z,77.70
2018-12-19T14:45:59.629Z,77.35
2018-12-19T14:48:27.115Z,77.61
2018-12-19T14:50:54.610Z,78.04
2018-12-19T14:53:21.999Z,77.64
2018-12-19T14:55:49.402Z,77.10
2018-12-19T14:58:16.836Z,77.69
2018-12-19T15:00:44.229Z,76.89
2018-12-19T15:03:11.613Z,77.79
2018-12-19T15:05:39.005Z,77.44
2018-12-19T15:08:06.450Z,78.41
2018-12-19T15:10:33.843Z,78.12
2018-12-19T15:13:01.267Z,79.60
2018-12-19T15:15:28.722Z,79.68
2018-12-19T15:17:56.188Z,78.91
2018-12-19T15:20:23.630Z,78.70
2018-12-19T15:22:51.017Z,79.42
2018-12-19T15:25:18.447Z,79.41
2018-12-19T15:27:45.914Z,79.47
2018-12-19T15:30:13.364Z,78.14
2018-12-19T15:32:40.834Z,78.10
2018-12-19T15:35:08.275Z,78.65
2018-12-19T15:37:35.735Z,78.94
2018-12-19T15:40:03.347Z,78.76
2018-12-19T15:42:32.682Z,79.05
2018-12-19T15:45:00.151Z,78.79
2018-12-19T15:47:27.550Z,79.12
2018-12-19T15:49:54.962Z,79.15
2018-12-19T15:52:22.528Z,78.36
2018-12-19T15:54:49.906Z,77.72
2018-12-19T15:57:17.294Z,78.74
2018-12-19T15:59:44.783Z,78.16
2018-12-19T16:02:12.247Z,78.43
2018-12-19T16:04:39.709Z,78.32
2018-12-19T16:07:07.106Z,79.12
2018-12-19T16:09:34.486Z,78.61
2018-12-19T16:12:01.981Z,79.79
2018-12-19T16:14:29.360Z,80.51
2018-12-19T16:16:56.795Z,80.51
2018-12-19T16:19:24.235Z,79.17
2018-12-19T16:21:51.622Z,80.30
2018-12-19T16:24:19.006Z,79.46
2018-12-19T16:26:46.414Z,79.48
2018-12-19T16:29:13.861Z,80.02
2018-12-19T16:31:41.258Z,80.34
2018-12-19T16:34:08.656Z,80.76
2018-12-19T16:36:36.050Z,81.25
2018-12-19T16:39:06.349Z,80.82
2018-12-19T16:41:33.824Z,80.51
2018-12-19T16:44:01.377Z,81.03
2018-12-19T16:46:28.825Z,81.04
2018-12-19T16:48:56.280Z,81.35
2018-12-19T16:51:23.742Z,80.85
2018-12-19T16:53:51.142Z,81.70
2018-12-19T16:56:18.649Z,82.28
2018-12-19T16:58:46.058Z,83.05
2018-12-19T17:01:13.769Z,81.89
2018-12-19T17:03:41.166Z,82.43
2018-12-19T17:06:08.552Z,82.41
2018-12-19T17:08:35.956Z,82.27
2018-12-19T17:11:03.397Z,82.76
2018-12-19T17:13:30.789Z,82.96
2018-12-19T17:15:58.206Z,83.12
2018-12-19T17:18:25.610Z,84.74
2018-12-19T17:20:53.007Z,83.57
2018-12-19T17:23:20.407Z,83.49
2018-12-19T17:25:47.936Z,82.61
2018-12-19T17:28:15.390Z,83.12
2018-12-19T17:30:42.783Z,83.83
2018-12-19T17:33:10.267Z,83.77
2018-12-19T17:35:37.658Z,83.22
2018-12-19T17:38:05.062Z,83.55
2018-12-19T17:40:32.450Z,83.06
2018-12-19T17:42:59.926Z,83.72
2018-12-19T17:45:27.382Z,84.39
2018-12-19T17:47:54.840Z,85.07
2018-12-19T17:50:22.298Z,85.14
2018-12-19T17:52:49.709Z,85.47
2018-12-19T17:55:17.169Z,85.17
2018-12-19T17:57:44.583Z,86.09
2018-12-19T18:00:12.155Z,85.62
2018-12-19T18:02:39.580Z,85.46
2018-12-19T18:05:07.142Z,85.43
2018-12-19T18:07:34.594Z,85.39
2018-12-19T18:10:02.088Z,84.73
2018-12-19T18:12:29.509Z,85.17
2018-12-19T18:14:56.886Z,84.59
2018-12-19T18:17:24.435Z,84.80
2018-12-19T18:19:51.883Z,84.32
2018-12-19T18:22:19.274Z,84.08
2018-12-19T18:24:46.672Z,83.55
2018-12-19T18:27:14.070Z,83.65
2018-12-19T18:29:41.522Z,83.21
2018-12-19T18:32:08.963Z,83.46
2018-12-19T18:34:36.356Z,84.83
2018-12-19T18:37:03.774Z,84.30
2018-12-19T18:39:31.235Z,84.66
2018-12-19T18:41:58.627Z,83.63
2018-12-19T18:44:26.048Z,83.19
2018-12-19T18:46:53.494Z,84.03
2018-12-19T18:49:20.959Z,83.02
2018-12-19T18:51:48.343Z,82.88
2018-12-19T18:54:15.742Z,82.40
2018-12-19T18:56:43.231Z,82.00
2018-12-19T18:59:10.637Z,82.97
2018-12-19T19:01:38.186Z,82.46
2018-12-19T19:04:05.702Z,82.44
2018-12-19T19:06:33.185Z,82.25
2018-12-19T19:09:00.724Z,83.20
2018-12-19T19:11:28.204Z,83.82
2018-12-19T19:13:55.635Z,82.85
2018-12-19T19:16:23.191Z,82.70
2018-12-19T19:18:50.637Z,83.69
2018-12-19T19:21:18.019Z,83.48
2018-12-19T19:23:45.425Z,83.21
2018-12-19T19:26:12.922Z,82.98
2018-12-19T19:28:40.306Z,83.28
2018-12-19T19:31:07.707Z,84.05
2018-12-19T19:33:35.189Z,83.49
2018-12-19T19:36:02.657Z,83.86
2018-12-19T19:38:30.054Z,83.72
2018-12-19T19:40:57.566Z,84.55
2018-12-19T19:43:26.680Z,84.19
2018-12-19T19:45:54.411Z,84.23
2018-12-19T19:48:21.818Z,83.84
2018-12-19T19:50:49.226Z,83.84
2018-12-19T19:53:16.627Z,84.21
2018-12-19T19:55:44.039Z,85.70
2018-12-19T19:58:11.493Z,85.58
2018-12-19T20:00:38.951Z,85.48
2018-12-19T20:03:06.410Z,84.69
2018-12-19T20:05:33.877Z,84.69
2018-12-19T20:08:01.322Z,85.07
2018-12-19T20:10:28.708Z,84.08
2018-12-19T20:12:56.130Z,84.38
2018-12-19T20:15:23.533Z,84.42
2018-12-19T20:17:50.915Z,83.28
2018-12-19T20:20:18.374Z,83.20
2018-12-19T20:22:45.782Z,83.92
2018-12-19T20:25:13.162Z,85.01
2018-12-19T20:27:40.568Z,84.41
2018-12-19T20:30:09.358Z,84.48
2018-12-19T20:32:36.816Z,83.76
2018-12-19T20:35:04.606Z,84.77
2018-12-19T20:37:32.030Z,85.10
2018-12-19T20:39:59.495Z,84.71
2018-12-19T20:42:26.882Z,84.31
2018-12-19T20:44:54.270Z,85.45
2018-12-19T20:47:21.746Z,86.28
2018-12-19T20:49:49.215Z,86.21
2018-12-19T20:52:16.676Z,86.55
2018-12-19T20:54:44.179Z,85.92
2018-12-19T20:57:11.697Z,85.82
2018-12-19T20:59:39.348Z,86.50
2018-12-19T21:02:06.942Z,85.72
2018-12-19T21:04:34.342Z,85.44
2018-12-19T21:07:01.722Z,85.65
2018-12-19T21:09:29.177Z,86.50
2018-12-19T21:11:56.611Z,86.37
2018-12-19T21:14:24.010Z,85.52
2018-12-19T21:16:57.096Z,84.66
2018-12-19T21:19:24.531Z,83.58
2018-12-19T21:21:51.938Z,84.18
2018-12-19T21:24:19.355Z,83.06
2018-12-19T21:26:46.753Z,83.14
2018-12-19T21:29:14.138Z,83.06
2018-12-19T21:31:41.614Z,83.33
2018-12-19T21:34:09.066Z,82.52
2018-12-19T21:36:36.528Z,83.63
2018-12-19T21:39:06.820Z,83.68
2018-12-19T21:41:34.215Z,83.60
2018-12-19T21:44:01.657Z,84.11
2018-12-19T21:46:29.156Z,83.42
2018-12-19T21:48:56.641Z,83.30
2018-12-19T21:51:24.134Z,84.15
2018-12-19T21:53:51.642Z,83.99
2018-12-19T21:56:19.171Z,84.46
2018-12-19T21:58:46.627Z,84.92
2018-12-19T22:01:14.023Z,84.12
2018-12-19T22:03:41.401Z,84.63
2018-12-19T22:06:08.880Z,84.08
2018-12-19T22:08:36.389Z,84.91
2018-12-19T22:11:05.438Z,85.64
2018-12-19T22:13:32.883Z,85.59
2018-12-19T22:16:00.349Z,85.42
2018-12-19T22:18:33.321Z,85.15
2018-12-19T22:21:00.845Z,84.11
2018-12-19T22:23:28.369Z,84.27
2018-12-19T22:25:55.942Z,84.37
2018-12-19T22:28:23.489Z,84.06
2018-12-19T22:30:50.955Z,83.66
2018-12-19T22:33:18.640Z,83.60
2018-12-19T22:35:46.100Z,83.10
2018-12-19T22:38:13.494Z,83.80
2018-12-19T22:40:41.112Z,84.01
2018-12-19T22:43:08.542Z,83.72
2018-12-19T22:45:36.007Z,84.05
2018-12-19T22:48:03.467Z,85.21
2018-12-19T22:50:30.873Z,84.69
2018-12-19T22:52:59.780Z,84.69
2018-12-19T22:55:27.530Z,85.46
2018-12-19T22:57:55.066Z,85.34
2018-12-19T23:00:22.474Z,85.33
2018-12-19T23:02:56.005Z,85.58
2018-12-19T23:05:29.255Z,85.80
2018-12-19T23:08:03.847Z,85.61
2018-12-19T23:10:31.505Z,84.63
2018-12-19T23:12:58.991Z,84.26
2018-12-19T23:15:26.444Z,83.99
2018-12-19T23:17:55.816Z,83.68
2018-12-19T23:20:23.393Z,83.33
2018-12-19T23:22:50.906Z,83.02
2018-12-19T23:25:18.717Z,82.71
2018-12-19T23:27:46.190Z,83.27
2018-12-19T23:30:13.612Z,82.83
2018-12-19T23:32:41.087Z,82.94
2018-12-19T23:35:08.619Z,82.09
2018-12-19T23:37:36.061Z,82.53
2018-12-19T23:40:04.307Z,83.33
2018-12-19T23:42:31.746Z,82.53
2018-12-19T23:44:59.186Z,83.40
2018-12-19T23:47:26.725Z,83.20
2018-12-19T23:49:54.195Z,82.89
2018-12-19T23:52:21.779Z,84.45
2018-12-19T23:54:49.342Z,83.82
2018-12-19T23:57:16.831Z,84.38
2018-12-19T23:59:44.274Z,85.09
